| time (UTC) | temp C | wind direction | speed KPH | gust KPH | rain 1hr cm | rain 24hr cm | rain mn cm | humidity % | barometer mb |
| 20260906031605 | 8 | 270 | 11.3 | 0.0 | 0.00 | 0.00 | 0.00 | 81 | |
| 20260906021605 | 8 | 280 | 11.3 | 0.0 | 0.00 | 0.00 | 0.00 | 81 | |
| 20260906011905 | 10 | 280 | 11.3 | 0.0 | 0.00 | 0.00 | 0.00 | 76 | |
| 20260906001605 | 11 | 290 | 8.0 | 0.0 | 0.00 | 0.00 | 0.00 | 71 | |
| 20260905231605 | 11 | 280 | 14.5 | 0.0 | 0.00 | 0.00 | 0.00 | 71 | |
| 20260905222025 | 11 | 280 | 11.3 | 0.0 | 0.00 | 0.00 | 0.00 | 71 | |
| 20260905211605 | 12 | 280 | 14.5 | 0.0 | 0.00 | 0.00 | 0.00 | 66 | |
| 20260905201605 | 12 | 290 | 11.3 | 0.0 | 0.00 | 0.00 | 0.00 | 62 | |
| 20260905191905 | 13 | 290 | 8.0 | 0.0 | 0.00 | 0.00 | 0.00 | 58 | |
| 20260905181605 | 15 | 290 | 8.0 | 0.0 | 0.00 | 0.00 | 0.00 | 54 | |
| 20260905171628 | 17 | 280 | 22.5 | 0.0 | 0.00 | 0.00 | 0.00 | 48 | |
| 20260905162025 | 17 | 280 | 22.5 | 38.6 | 0.00 | 0.00 | 0.00 | 45 | |
| 20260905151604 | 18 | 270 | 25.7 | 41.8 | 0.00 | 0.00 | 0.00 | 48 | |
| 20260905141604 | 18 | 280 | 22.5 | 38.6 | 0.00 | 0.00 | 0.00 | 48 | |
| 20260905131805 | 18 | 270 | 25.7 | 46.7 | 0.00 | 0.00 | 0.00 | 52 | |
| 20260905121824 | 20 | 270 | 19.3 | 0.0 | 0.00 | 0.00 | 0.00 | 56 | |
| 20260905111606 | 17 | 270 | 29.0 | 46.7 | 0.00 | 0.00 | 0.00 | 63 | |
| 20260905102034 | 16 | 270 | 22.5 | 0.0 | 0.00 | 0.00 | 0.00 | 72 | |
| 20260905091704 | 12 | 270 | 22.5 | 0.0 | 0.00 | 0.00 | 0.00 | 87 | |
| 20260905081608 | 12 | 270 | 22.5 | 41.8 | 0.00 | 0.00 | 0.00 | 93 | |
| 20260905071907 | 11 | 270 | 22.5 | 0.0 | 0.00 | 0.00 | 0.00 | 99 | |
| 20260905061607 | 10 | 270 | 19.3 | 0.0 | 0.00 | 0.00 | 0.00 | 99 | |
| 20260905051606 | 10 | 270 | 22.5 | 0.0 | 0.00 | 0.00 | 0.00 | 93 | |
| 20260905042026 | 10 | 270 | 19.3 | 0.0 | 0.00 | 0.00 | 0.00 | 93 |